sensor_id;sensor_type;location;lat;lon;timestamp;pressure;altitude;pressure_sealevel;temperature;humidity
72925;BME280;61070;50.794;7.054;2023-09-19T00:00:42;100350.91;;;15.87;75.42
72925;BME280;61070;50.794;7.054;2023-09-19T00:01:44;100349.66;;;15.80;76.23
72925;BME280;61070;50.794;7.054;2023-09-19T00:02:51;100346.38;;;15.76;76.31
72925;BME280;61070;50.794;7.054;2023-09-19T00:03:52;100344.13;;;15.71;76.88
72925;BME280;61070;50.794;7.054;2023-09-19T00:04:53;100354.63;;;15.95;75.66
72925;BME280;61070;50.794;7.054;2023-09-19T00:05:53;100349.31;;;15.84;75.75
72925;BME280;61070;50.794;7.054;2023-09-19T00:06:55;100345.19;;;15.80;74.52
72925;BME280;61070;50.794;7.054;2023-09-19T00:07:57;100347.75;;;15.82;74.97
72925;BME280;61070;50.794;7.054;2023-09-19T00:08:58;100348.19;;;15.75;75.17
72925;BME280;61070;50.794;7.054;2023-09-19T00:10:00;100347.13;;;15.78;74.44
72925;BME280;61070;50.794;7.054;2023-09-19T00:11:00;100353.66;;;15.85;75.27
72925;BME280;61070;50.794;7.054;2023-09-19T00:12:06;100349.81;;;15.89;75.12
72925;BME280;61070;50.794;7.054;2023-09-19T00:13:09;100346.53;;;15.86;75.15
72925;BME280;61070;50.794;7.054;2023-09-19T00:14:13;100350.84;;;15.75;74.98
72925;BME280;61070;50.794;7.054;2023-09-19T00:15:14;100350.00;;;15.75;75.12
72925;BME280;61070;50.794;7.054;2023-09-19T00:16:17;100352.28;;;15.68;75.58
72925;BME280;61070;50.794;7.054;2023-09-19T00:17:19;100351.69;;;15.76;74.80
72925;BME280;61070;50.794;7.054;2023-09-19T00:18:20;100351.94;;;15.73;74.77
72925;BME280;61070;50.794;7.054;2023-09-19T00:19:21;100352.78;;;15.73;75.42
72925;BME280;61070;50.794;7.054;2023-09-19T00:20:22;100345.44;;;15.77;75.03
72925;BME280;61070;50.794;7.054;2023-09-19T00:21:26;100339.88;;;15.69;75.18
72925;BME280;61070;50.794;7.054;2023-09-19T00:22:26;100344.94;;;15.72;75.18
72925;BME280;61070;50.794;7.054;2023-09-19T00:23:27;100350.97;;;15.74;74.76
72925;BME280;61070;50.794;7.054;2023-09-19T00:24:28;100353.41;;;15.77;74.91
72925;BME280;61070;50.794;7.054;2023-09-19T00:25:28;100347.75;;;15.82;74.01
72925;BME280;61070;50.794;7.054;2023-09-19T00:26:28;100355.63;;;15.70;74.54
72925;BME280;61070;50.794;7.054;2023-09-19T00:27:30;100362.88;;;15.68;73.99
72925;BME280;61070;50.794;7.054;2023-09-19T00:28:31;100347.75;;;15.82;73.83
72925;BME280;61070;50.794;7.054;2023-09-19T00:29:31;100353.28;;;15.79;73.07
72925;BME280;61070;50.794;7.054;2023-09-19T00:30:34;100369.97;;;15.68;74.74
72925;BME280;61070;50.794;7.054;2023-09-19T00:31:34;100356.06;;;15.88;72.93
72925;BME280;61070;50.794;7.054;2023-09-19T00:32:37;100351.84;;;15.86;73.00
72925;BME280;61070;50.794;7.054;2023-09-19T00:33:37;100350.25;;;15.72;73.77
72925;BME280;61070;50.794;7.054;2023-09-19T00:34:38;100351.56;;;15.66;74.38
72925;BME280;61070;50.794;7.054;2023-09-19T00:35:38;100340.97;;;15.66;74.63
72925;BME280;61070;50.794;7.054;2023-09-19T00:36:38;100346.78;;;15.83;73.25
72925;BME280;61070;50.794;7.054;2023-09-19T00:37:39;100343.38;;;15.69;73.82
72925;BME280;61070;50.794;7.054;2023-09-19T00:38:39;100345.94;;;15.58;74.91
72925;BME280;61070;50.794;7.054;2023-09-19T00:39:40;100347.00;;;15.56;74.53
72925;BME280;61070;50.794;7.054;2023-09-19T00:40:44;100346.28;;;15.54;74.49
72925;BME280;61070;50.794;7.054;2023-09-19T00:41:44;100358.69;;;15.53;74.18
72925;BME280;61070;50.794;7.054;2023-09-19T00:42:46;100349.44;;;15.59;74.29
72925;BME280;61070;50.794;7.054;2023-09-19T00:43:46;100350.47;;;15.56;73.98
72925;BME280;61070;50.794;7.054;2023-09-19T00:44:47;100352.50;;;15.65;73.29
72925;BME280;61070;50.794;7.054;2023-09-19T00:45:52;100352.41;;;15.67;72.84
72925;BME280;61070;50.794;7.054;2023-09-19T00:46:53;100353.44;;;15.64;73.29
72925;BME280;61070;50.794;7.054;2023-09-19T00:47:53;100355.75;;;15.69;73.00
72925;BME280;61070;50.794;7.054;2023-09-19T00:48:54;100353.31;;;15.66;73.33
72925;BME280;61070;50.794;7.054;2023-09-19T00:49:55;100352.78;;;15.61;74.37
72925;BME280;61070;50.794;7.054;2023-09-19T00:50:57;100358.34;;;15.58;74.30
72925;BME280;61070;50.794;7.054;2023-09-19T00:51:59;100357.16;;;15.62;74.07
72925;BME280;61070;50.794;7.054;2023-09-19T00:52:59;100356.94;;;15.65;73.71
72925;BME280;61070;50.794;7.054;2023-09-19T00:54:00;100359.81;;;15.62;73.67
72925;BME280;61070;50.794;7.054;2023-09-19T00:55:02;100354.34;;;15.52;74.60
72925;BME280;61070;50.794;7.054;2023-09-19T00:56:03;100361.81;;;15.58;74.62
72925;BME280;61070;50.794;7.054;2023-09-19T00:57:08;100369.53;;;15.61;73.78
72925;BME280;61070;50.794;7.054;2023-09-19T00:58:08;100366.34;;;15.69;73.22
72925;BME280;61070;50.794;7.054;2023-09-19T00:59:10;100363.28;;;15.62;73.69
72925;BME280;61070;50.794;7.054;2023-09-19T01:00:12;100367.44;;;15.66;73.25
72925;BME280;61070;50.794;7.054;2023-09-19T01:01:15;100361.91;;;15.69;72.97
72925;BME280;61070;50.794;7.054;2023-09-19T01:02:17;100365.50;;;15.68;73.07
72925;BME280;61070;50.794;7.054;2023-09-19T01:03:17;100366.97;;;15.72;72.90
72925;BME280;61070;50.794;7.054;2023-09-19T01:04:18;100363.59;;;15.70;73.12
72925;BME280;61070;50.794;7.054;2023-09-19T01:05:18;100364.94;;;15.76;73.68
72925;BME280;61070;50.794;7.054;2023-09-19T01:06:19;100370.97;;;15.78;73.51
72925;BME280;61070;50.794;7.054;2023-09-19T01:07:19;100368.84;;;15.94;72.67
72925;BME280;61070;50.794;7.054;2023-09-19T01:08:21;100376.59;;;15.97;72.43
72925;BME280;61070;50.794;7.054;2023-09-19T01:09:21;100374.31;;;16.04;71.92
72925;BME280;61070;50.794;7.054;2023-09-19T01:10:22;100373.59;;;16.02;72.12
72925;BME280;61070;50.794;7.054;2023-09-19T01:11:50;100374.78;;;15.98;72.58
72925;BME280;61070;50.794;7.054;2023-09-19T01:13:09;100384.13;;;15.91;72.85
72925;BME280;61070;50.794;7.054;2023-09-19T01:15:40;100376.19;;;15.91;72.72
72925;BME280;61070;50.794;7.054;2023-09-19T01:16:50;100378.97;;;16.00;72.17
72925;BME280;61070;50.794;7.054;2023-09-19T01:18:00;100379.13;;;15.99;72.38
72925;BME280;61070;50.794;7.054;2023-09-19T01:19:40;100377.81;;;16.05;71.35
72925;BME280;61070;50.794;7.054;2023-09-19T01:20:45;100378.97;;;16.00;72.08
72925;BME280;61070;50.794;7.054;2023-09-19T01:22:11;100376.84;;;16.06;72.03
72925;BME280;61070;50.794;7.054;2023-09-19T01:23:43;100375.16;;;16.05;72.13
72925;BME280;61070;50.794;7.054;2023-09-19T01:28:53;100386.25;;;16.10;72.00
72925;BME280;61070;50.794;7.054;2023-09-19T01:30:09;100387.22;;;16.09;71.76
72925;BME280;61070;50.794;7.054;2023-09-19T01:31:11;100382.13;;;16.06;71.99
72925;BME280;61070;50.794;7.054;2023-09-19T01:32:18;100395.16;;;16.09;72.36
72925;BME280;61070;50.794;7.054;2023-09-19T01:33:22;100385.91;;;16.14;71.78
72925;BME280;61070;50.794;7.054;2023-09-19T01:34:23;100385.41;;;16.09;71.50
72925;BME280;61070;50.794;7.054;2023-09-19T01:35:23;100394.84;;;16.24;70.70
72925;BME280;61070;50.794;7.054;2023-09-19T01:36:23;100394.69;;;16.15;71.53
72925;BME280;61070;50.794;7.054;2023-09-19T01:37:24;100395.88;;;16.11;71.31
72925;BME280;61070;50.794;7.054;2023-09-19T01:38:27;100397.94;;;16.07;72.42
72925;BME280;61070;50.794;7.054;2023-09-19T01:39:27;100400.34;;;16.10;71.44
72925;BME280;61070;50.794;7.054;2023-09-19T01:40:29;100399.78;;;16.18;71.77
72925;BME280;61070;50.794;7.054;2023-09-19T01:41:56;100399.50;;;16.10;71.73
72925;BME280;61070;50.794;7.054;2023-09-19T01:43:18;100412.38;;;16.03;71.62
72925;BME280;61070;50.794;7.054;2023-09-19T01:46:04;100404.94;;;16.08;71.50
72925;BME280;61070;50.794;7.054;2023-09-19T01:47:26;100413.59;;;16.10;70.79
72925;BME280;61070;50.794;7.054;2023-09-19T01:48:47;100411.34;;;16.17;70.53
72925;BME280;61070;50.794;7.054;2023-09-19T01:50:12;100415.06;;;16.14;71.07
72925;BME280;61070;50.794;7.054;2023-09-19T01:51:22;100407.03;;;16.27;68.80
72925;BME280;61070;50.794;7.054;2023-09-19T01:52:30;100413.06;;;16.29;69.01
72925;BME280;61070;50.794;7.054;2023-09-19T01:53:56;100410.50;;;16.16;69.55
72925;BME280;61070;50.794;7.054;2023-09-19T01:55:06;100407.94;;;16.15;69.08
72925;BME280;61070;50.794;7.054;2023-09-19T01:56:12;100409.25;;;16.09;69.62
72925;BME280;61070;50.794;7.054;2023-09-19T01:58:48;100408.41;;;16.09;68.49
72925;BME280;61070;50.794;7.054;2023-09-19T02:00:04;100417.50;;;16.17;68.01
72925;BME280;61070;50.794;7.054;2023-09-19T02:01:11;100423.50;;;16.19;68.03
72925;BME280;61070;50.794;7.054;2023-09-19T02:02:13;100419.66;;;16.12;67.98
72925;BME280;61070;50.794;7.054;2023-09-19T02:03:15;100426.63;;;16.13;67.96
72925;BME280;61070;50.794;7.054;2023-09-19T02:04:16;100417.22;;;16.09;67.12
72925;BME280;61070;50.794;7.054;2023-09-19T02:05:23;100430.13;;;16.14;67.80
72925;BME280;61070;50.794;7.054;2023-09-19T02:06:29;100426.13;;;16.08;67.18
72925;BME280;61070;50.794;7.054;2023-09-19T02:07:30;100420.31;;;16.03;67.86
72925;BME280;61070;50.794;7.054;2023-09-19T02:08:31;100422.47;;;15.98;67.50
72925;BME280;61070;50.794;7.054;2023-09-19T02:09:33;100424.78;;;16.02;66.58
72925;BME280;61070;50.794;7.054;2023-09-19T02:10:35;100432.78;;;16.14;67.03
72925;BME280;61070;50.794;7.054;2023-09-19T02:11:35;100426.00;;;16.10;66.82
72925;BME280;61070;50.794;7.054;2023-09-19T02:12:37;100435.47;;;16.01;67.00
72925;BME280;61070;50.794;7.054;2023-09-19T02:13:38;100426.25;;;16.07;66.23
72925;BME280;61070;50.794;7.054;2023-09-19T02:14:39;100428.03;;;16.06;66.58
72925;BME280;61070;50.794;7.054;2023-09-19T02:15:39;100438.38;;;15.98;66.77
72925;BME280;61070;50.794;7.054;2023-09-19T02:16:40;100432.91;;;15.88;67.06
72925;BME280;61070;50.794;7.054;2023-09-19T02:17:40;100437.53;;;15.97;67.30
72925;BME280;61070;50.794;7.054;2023-09-19T02:18:41;100435.34;;;15.91;66.77
72925;BME280;61070;50.794;7.054;2023-09-19T02:19:41;100435.69;;;15.87;67.29
72925;BME280;61070;50.794;7.054;2023-09-19T02:20:42;100440.91;;;15.75;67.51
72925;BME280;61070;50.794;7.054;2023-09-19T02:21:42;100444.31;;;15.77;66.79
72925;BME280;61070;50.794;7.054;2023-09-19T02:22:43;100435.22;;;15.69;67.50
72925;BME280;61070;50.794;7.054;2023-09-19T02:23:45;100439.34;;;15.73;67.81
72925;BME280;61070;50.794;7.054;2023-09-19T02:24:47;100440.47;;;15.82;67.44
72925;BME280;61070;50.794;7.054;2023-09-19T02:25:52;100441.25;;;15.71;66.89
72925;BME280;61070;50.794;7.054;2023-09-19T02:26:52;100441.69;;;15.65;67.87
72925;BME280;61070;50.794;7.054;2023-09-19T02:27:54;100447.50;;;15.70;67.52
72925;BME280;61070;50.794;7.054;2023-09-19T02:28:58;100441.25;;;15.71;66.99
72925;BME280;61070;50.794;7.054;2023-09-19T02:29:59;100446.44;;;15.72;67.98
72925;BME280;61070;50.794;7.054;2023-09-19T02:31:02;100451.06;;;15.82;67.14
72925;BME280;61070;50.794;7.054;2023-09-19T02:32:05;100441.69;;;15.65;68.12
72925;BME280;61070;50.794;7.054;2023-09-19T02:33:06;100443.38;;;15.66;67.60
72925;BME280;61070;50.794;7.054;2023-09-19T02:34:08;100447.13;;;15.63;67.71
72925;BME280;61070;50.794;7.054;2023-09-19T02:35:08;100446.25;;;15.63;67.60
72925;BME280;61070;50.794;7.054;2023-09-19T02:36:11;100450.78;;;15.61;68.36
72925;BME280;61070;50.794;7.054;2023-09-19T02:37:11;100445.72;;;15.58;68.13
72925;BME280;61070;50.794;7.054;2023-09-19T02:38:13;100444.38;;;15.52;69.03
72925;BME280;61070;50.794;7.054;2023-09-19T02:39:14;100444.59;;;15.49;68.64
72925;BME280;61070;50.794;7.054;2023-09-19T02:40:15;100441.28;;;15.58;68.27
72925;BME280;61070;50.794;7.054;2023-09-19T02:41:25;100444.59;;;15.49;68.93
72925;BME280;61070;50.794;7.054;2023-09-19T02:42:26;100446.72;;;15.44;69.25
72925;BME280;61070;50.794;7.054;2023-09-19T02:43:27;100443.69;;;15.37;69.23
72925;BME280;61070;50.794;7.054;2023-09-19T02:44:27;100451.94;;;15.33;69.70
72925;BME280;61070;50.794;7.054;2023-09-19T02:45:28;100452.75;;;15.46;69.33
72925;BME280;61070;50.794;7.054;2023-09-19T02:46:30;100443.03;;;15.46;68.89
72925;BME280;61070;50.794;7.054;2023-09-19T02:47:30;100448.72;;;15.40;69.20
72925;BME280;61070;50.794;7.054;2023-09-19T02:48:31;100445.88;;;15.43;68.92
72925;BME280;61070;50.794;7.054;2023-09-19T02:49:32;100453.34;;;15.62;68.29
72925;BME280;61070;50.794;7.054;2023-09-19T02:50:32;100451.91;;;15.45;69.07
72925;BME280;61070;50.794;7.054;2023-09-19T02:51:34;100455.72;;;15.41;69.50
72925;BME280;61070;50.794;7.054;2023-09-19T02:52:34;100456.06;;;15.37;69.61
72925;BME280;61070;50.794;7.054;2023-09-19T02:53:35;100465.13;;;15.45;68.52
72925;BME280;61070;50.794;7.054;2023-09-19T02:54:36;100458.81;;;15.35;69.56
72925;BME280;61070;50.794;7.054;2023-09-19T02:55:37;100461.44;;;15.35;69.65
72925;BME280;61070;50.794;7.054;2023-09-19T02:56:38;100465.56;;;15.39;69.22
72925;BME280;61070;50.794;7.054;2023-09-19T02:57:38;100468.22;;;15.39;69.18
72925;BME280;61070;50.794;7.054;2023-09-19T02:58:41;100463.91;;;15.38;69.48
72925;BME280;61070;50.794;7.054;2023-09-19T02:59:42;100465.69;;;15.38;70.27
72925;BME280;61070;50.794;7.054;2023-09-19T03:00:44;100465.72;;;15.25;70.12
72925;BME280;61070;50.794;7.054;2023-09-19T03:01:47;100466.66;;;15.24;69.64
72925;BME280;61070;50.794;7.054;2023-09-19T03:02:54;100469.63;;;15.19;70.40
72925;BME280;61070;50.794;7.054;2023-09-19T03:03:54;100460.53;;;15.23;70.13
72925;BME280;61070;50.794;7.054;2023-09-19T03:04:55;100465.19;;;15.20;69.90
72925;BME280;61070;50.794;7.054;2023-09-19T03:05:56;100467.63;;;15.23;69.84
72925;BME280;61070;50.794;7.054;2023-09-19T03:06:58;100463.31;;;15.22;69.89
72925;BME280;61070;50.794;7.054;2023-09-19T03:08:01;100464.09;;;15.35;69.38
72925;BME280;61070;50.794;7.054;2023-09-19T03:09:01;100472.38;;;15.31;69.73
72925;BME280;61070;50.794;7.054;2023-09-19T03:10:03;100460.75;;;15.20;70.31
72925;BME280;61070;50.794;7.054;2023-09-19T03:11:05;100462.09;;;15.26;70.02
72925;BME280;61070;50.794;7.054;2023-09-19T03:12:06;100466.34;;;15.16;70.05
72925;BME280;61070;50.794;7.054;2023-09-19T03:13:06;100473.88;;;15.09;70.48
72925;BME280;61070;50.794;7.054;2023-09-19T03:14:09;100468.59;;;15.09;70.08
72925;BME280;61070;50.794;7.054;2023-09-19T03:15:10;100468.69;;;15.20;70.19
72925;BME280;61070;50.794;7.054;2023-09-19T03:16:10;100481.78;;;15.35;69.84
72925;BME280;61070;50.794;7.054;2023-09-19T03:17:10;100469.19;;;15.38;69.31
72925;BME280;61070;50.794;7.054;2023-09-19T03:18:11;100471.97;;;15.24;69.56
72925;BME280;61070;50.794;7.054;2023-09-19T03:19:12;100471.88;;;15.13;70.34
72925;BME280;61070;50.794;7.054;2023-09-19T03:20:15;100465.31;;;15.18;70.33
72925;BME280;61070;50.794;7.054;2023-09-19T03:21:19;100482.34;;;15.14;70.88
72925;BME280;61070;50.794;7.054;2023-09-19T03:22:19;100478.41;;;15.20;70.41
72925;BME280;61070;50.794;7.054;2023-09-19T03:23:19;100482.16;;;15.17;69.84
72925;BME280;61070;50.794;7.054;2023-09-19T03:24:20;100487.97;;;15.22;69.84
72925;BME280;61070;50.794;7.054;2023-09-19T03:25:20;100483.84;;;15.18;69.90
72925;BME280;61070;50.794;7.054;2023-09-19T03:26:23;100490.19;;;15.16;70.84
72925;BME280;61070;50.794;7.054;2023-09-19T03:27:23;100486.47;;;15.18;69.84
72925;BME280;61070;50.794;7.054;2023-09-19T03:28:24;100488.59;;;15.13;69.97
72925;BME280;61070;50.794;7.054;2023-09-19T03:29:24;100481.81;;;15.09;70.47
72925;BME280;61070;50.794;7.054;2023-09-19T03:30:25;100491.13;;;15.15;70.31
72925;BME280;61070;50.794;7.054;2023-09-19T03:31:26;100487.53;;;15.16;69.93
72925;BME280;61070;50.794;7.054;2023-09-19T03:32:26;100485.31;;;15.10;70.18
72925;BME280;61070;50.794;7.054;2023-09-19T03:33:27;100489.66;;;15.11;69.98
72925;BME280;61070;50.794;7.054;2023-09-19T03:34:27;100486.41;;;15.07;70.21
72925;BME280;61070;50.794;7.054;2023-09-19T03:35:28;100486.81;;;15.27;68.97
72925;BME280;61070;50.794;7.054;2023-09-19T03:36:29;100493.91;;;15.13;69.58
72925;BME280;61070;50.794;7.054;2023-09-19T03:37:29;100491.25;;;15.00;70.50
72925;BME280;61070;50.794;7.054;2023-09-19T03:38:30;100492.94;;;15.02;69.63
72925;BME280;61070;50.794;7.054;2023-09-19T03:39:30;100486.06;;;14.99;70.39
72925;BME280;61070;50.794;7.054;2023-09-19T03:40:31;100494.00;;;14.99;70.16
72925;BME280;61070;50.794;7.054;2023-09-19T03:41:31;100490.94;;;14.92;70.91
72925;BME280;61070;50.794;7.054;2023-09-19T03:42:33;100499.72;;;14.93;71.24
72925;BME280;61070;50.794;7.054;2023-09-19T03:43:36;100488.81;;;15.10;69.97
72925;BME280;61070;50.794;7.054;2023-09-19T03:44:36;100494.00;;;15.12;69.90
72925;BME280;61070;50.794;7.054;2023-09-19T03:45:37;100487.88;;;14.98;69.98
72925;BME280;61070;50.794;7.054;2023-09-19T03:46:38;100487.13;;;14.96;70.02
72925;BME280;61070;50.794;7.054;2023-09-19T03:47:39;100485.66;;;14.92;70.31
72925;BME280;61070;50.794;7.054;2023-09-19T03:48:39;100492.09;;;15.01;69.78
72925;BME280;61070;50.794;7.054;2023-09-19T03:49:39;100486.91;;;14.99;70.39
72925;BME280;61070;50.794;7.054;2023-09-19T03:50:39;100485.75;;;14.91;70.84
72925;BME280;61070;50.794;7.054;2023-09-19T03:51:40;100478.75;;;14.90;70.73
72925;BME280;61070;50.794;7.054;2023-09-19T03:52:41;100488.91;;;14.96;70.41
72925;BME280;61070;50.794;7.054;2023-09-19T03:53:42;100480.38;;;14.92;71.04
72925;BME280;61070;50.794;7.054;2023-09-19T03:54:42;100488.31;;;14.92;70.34
72925;BME280;61070;50.794;7.054;2023-09-19T03:55:45;100473.78;;;14.85;71.17
72925;BME280;61070;50.794;7.054;2023-09-19T03:56:46;100487.13;;;14.84;71.39
72925;BME280;61070;50.794;7.054;2023-09-19T03:57:49;100489.66;;;14.85;71.43
72925;BME280;61070;50.794;7.054;2023-09-19T03:58:50;100484.38;;;14.98;70.61
72925;BME280;61070;50.794;7.054;2023-09-19T03:59:50;100483.09;;;14.91;70.54
72925;BME280;61070;50.794;7.054;2023-09-19T04:00:56;100477.72;;;14.92;70.86
72925;BME280;61070;50.794;7.054;2023-09-19T04:01:57;100493.06;;;14.87;70.79
72925;BME280;61070;50.794;7.054;2023-09-19T04:02:58;100485.53;;;14.81;71.35
72925;BME280;61070;50.794;7.054;2023-09-19T04:03:58;100488.94;;;14.83;71.42
72925;BME280;61070;50.794;7.054;2023-09-19T04:05:08;100488.41;;;14.78;71.59
72925;BME280;61070;50.794;7.054;2023-09-19T04:06:08;100489.13;;;14.80;71.41
72925;BME280;61070;50.794;7.054;2023-09-19T04:07:08;100492.22;;;14.74;71.88
72925;BME280;61070;50.794;7.054;2023-09-19T04:08:08;100494.84;;;14.74;72.41
72925;BME280;61070;50.794;7.054;2023-09-19T04:09:09;100485.22;;;14.73;72.10
72925;BME280;61070;50.794;7.054;2023-09-19T04:10:09;100483.53;;;14.97;70.60
72925;BME280;61070;50.794;7.054;2023-09-19T04:11:11;100492.00;;;15.03;70.29
72925;BME280;61070;50.794;7.054;2023-09-19T04:12:12;100483.41;;;14.86;70.94
72925;BME280;61070;50.794;7.054;2023-09-19T04:13:12;100486.50;;;14.80;71.34
72925;BME280;61070;50.794;7.054;2023-09-19T04:14:12;100493.06;;;14.87;70.58
72925;BME280;61070;50.794;7.054;2023-09-19T04:15:13;100480.78;;;14.99;70.21
72925;BME280;61070;50.794;7.054;2023-09-19T04:16:13;100485.34;;;14.84;70.81
72925;BME280;61070;50.794;7.054;2023-09-19T04:17:13;100488.94;;;14.83;71.04
72925;BME280;61070;50.794;7.054;2023-09-19T04:18:13;100480.78;;;14.86;70.20
72925;BME280;61070;50.794;7.054;2023-09-19T04:19:14;100489.03;;;14.82;71.08
72925;BME280;61070;50.794;7.054;2023-09-19T04:20:15;100492.72;;;14.79;70.51
72925;BME280;61070;50.794;7.054;2023-09-19T04:21:16;100494.09;;;14.85;70.34
72925;BME280;61070;50.794;7.054;2023-09-19T04:22:16;100493.47;;;14.81;70.79
72925;BME280;61070;50.794;7.054;2023-09-19T04:23:17;100493.88;;;14.75;70.64
72925;BME280;61070;50.794;7.054;2023-09-19T04:24:17;100492.50;;;14.69;71.15
72925;BME280;61070;50.794;7.054;2023-09-19T04:25:19;100491.25;;;14.75;70.88
72925;BME280;61070;50.794;7.054;2023-09-19T04:26:20;100495.25;;;14.81;70.58
72925;BME280;61070;50.794;7.054;2023-09-19T04:27:22;100491.47;;;14.72;70.93
72925;BME280;61070;50.794;7.054;2023-09-19T04:28:23;100483.75;;;14.69;71.00
72925;BME280;61070;50.794;7.054;2023-09-19T04:29:24;100497.91;;;14.68;71.80
72925;BME280;61070;50.794;7.054;2023-09-19T04:30:24;100496.31;;;14.65;72.10
72925;BME280;61070;50.794;7.054;2023-09-19T04:31:25;100501.06;;;14.60;72.17
72925;BME280;61070;50.794;7.054;2023-09-19T04:32:28;100500.22;;;14.60;72.40
72925;BME280;61070;50.794;7.054;2023-09-19T04:33:29;100499.06;;;14.64;72.38
72925;BME280;61070;50.794;7.054;2023-09-19T04:34:30;100493.25;;;14.59;72.18
72925;BME280;61070;50.794;7.054;2023-09-19T04:35:30;100498.00;;;14.54;72.72
72925;BME280;61070;50.794;7.054;2023-09-19T04:36:32;100498.00;;;14.54;72.54
72925;BME280;61070;50.794;7.054;2023-09-19T04:37:32;100500.13;;;14.61;72.03
72925;BME280;61070;50.794;7.054;2023-09-19T04:38:33;100494.44;;;14.67;71.82
72925;BME280;61070;50.794;7.054;2023-09-19T04:39:33;100496.63;;;14.61;72.02
72925;BME280;61070;50.794;7.054;2023-09-19T04:40:34;100493.25;;;14.59;72.33
72925;BME280;61070;50.794;7.054;2023-09-19T04:41:34;100494.41;;;14.55;72.51
72925;BME280;61070;50.794;7.054;2023-09-19T04:42:34;100495.66;;;14.62;72.16
72925;BME280;61070;50.794;7.054;2023-09-19T04:43:35;100501.50;;;14.54;72.50
72925;BME280;61070;50.794;7.054;2023-09-19T04:44:35;100498.00;;;14.54;72.75
72925;BME280;61070;50.794;7.054;2023-09-19T04:45:39;100500.75;;;14.52;72.56
72925;BME280;61070;50.794;7.054;2023-09-19T04:46:40;100503.59;;;14.49;72.72
72925;BME280;61070;50.794;7.054;2023-09-19T04:47:41;100504.25;;;14.53;72.67
72925;BME280;61070;50.794;7.054;2023-09-19T04:48:43;100506.25;;;14.49;72.95
72925;BME280;61070;50.794;7.054;2023-09-19T04:49:43;100502.06;;;14.45;73.39
72925;BME280;61070;50.794;7.054;2023-09-19T04:50:44;100496.97;;;14.42;72.86
72925;BME280;61070;50.794;7.054;2023-09-19T04:51:44;100506.34;;;14.47;73.02
72925;BME280;61070;50.794;7.054;2023-09-19T04:52:49;100504.56;;;14.48;72.52
72925;BME280;61070;50.794;7.054;2023-09-19T04:53:50;100503.31;;;14.39;72.94
72925;BME280;61070;50.794;7.054;2023-09-19T04:54:51;100500.00;;;14.50;72.97
72925;BME280;61070;50.794;7.054;2023-09-19T04:55:51;100500.94;;;14.49;72.40
72925;BME280;61070;50.794;7.054;2023-09-19T04:56:55;100498.88;;;14.40;72.79
72925;BME280;61070;50.794;7.054;2023-09-19T04:57:55;100503.28;;;14.54;72.30
72925;BME280;61070;50.794;7.054;2023-09-19T04:58:56;100504.44;;;14.50;72.44
72925;BME280;61070;50.794;7.054;2023-09-19T04:59:58;100502.63;;;14.50;72.81
72925;BME280;61070;50.794;7.054;2023-09-19T05:00:58;100510.75;;;14.47;72.33
72925;BME280;61070;50.794;7.054;2023-09-19T05:01:59;100506.69;;;14.41;72.50
72925;BME280;61070;50.794;7.054;2023-09-19T05:02:59;100515.47;;;14.42;72.28
72925;BME280;61070;50.794;7.054;2023-09-19T05:04:00;100523.22;;;14.45;72.29
72925;BME280;61070;50.794;7.054;2023-09-19T05:05:00;100515.91;;;14.36;72.41
72925;BME280;61070;50.794;7.054;2023-09-19T05:06:01;100512.66;;;14.45;71.82
72925;BME280;61070;50.794;7.054;2023-09-19T05:07:01;100518.22;;;14.40;72.21
72925;BME280;61070;50.794;7.054;2023-09-19T05:08:04;100520.88;;;14.40;72.60
72925;BME280;61070;50.794;7.054;2023-09-19T05:09:05;100513.91;;;14.39;72.10
72925;BME280;61070;50.794;7.054;2023-09-19T05:10:06;100516.53;;;14.39;71.91
72925;BME280;61070;50.794;7.054;2023-09-19T05:11:07;100520.34;;;14.35;72.78
72925;BME280;61070;50.794;7.054;2023-09-19T05:12:09;100521.28;;;14.34;72.55
72925;BME280;61070;50.794;7.054;2023-09-19T05:13:10;100528.38;;;14.34;72.77
72925;BME280;61070;50.794;7.054;2023-09-19T05:14:12;100522.44;;;14.30;72.88
72925;BME280;61070;50.794;7.054;2023-09-19T05:15:13;100529.16;;;14.21;72.86
72925;BME280;61070;50.794;7.054;2023-09-19T05:16:19;100525.94;;;14.31;72.76
72925;BME280;61070;50.794;7.054;2023-09-19T05:17:20;100531.88;;;14.34;72.70
72925;BME280;61070;50.794;7.054;2023-09-19T05:18:20;100529.41;;;14.31;72.65
72925;BME280;61070;50.794;7.054;2023-09-19T05:19:22;100535.75;;;14.29;72.45
72925;BME280;61070;50.794;7.054;2023-09-19T05:20:22;100540.22;;;14.28;72.52
72925;BME280;61070;50.794;7.054;2023-09-19T05:21:30;100541.34;;;14.24;72.84
72925;BME280;61070;50.794;7.054;2023-09-19T05:22:31;100541.88;;;14.29;72.74
72925;BME280;61070;50.794;7.054;2023-09-19T05:23:32;100537.00;;;14.23;73.25
72925;BME280;61070;50.794;7.054;2023-09-19T05:24:33;100542.38;;;14.21;73.33
72925;BME280;61070;50.794;7.054;2023-09-19T05:25:34;100547.38;;;14.26;72.94
72925;BME280;61070;50.794;7.054;2023-09-19T05:26:38;100546.44;;;14.27;72.56
72925;BME280;61070;50.794;7.054;2023-09-19T05:27:40;100544.94;;;14.23;73.29
72925;BME280;61070;50.794;7.054;2023-09-19T05:28:40;100552.94;;;14.21;73.05
72925;BME280;61070;50.794;7.054;2023-09-19T05:29:40;100552.31;;;14.18;73.07
72925;BME280;61070;50.794;7.054;2023-09-19T05:30:42;100558.84;;;14.12;73.95
72925;BME280;61070;50.794;7.054;2023-09-19T05:31:43;100557.69;;;14.16;73.92
72925;BME280;61070;50.794;7.054;2023-09-19T05:32:43;100554.75;;;14.21;73.18
72925;BME280;61070;50.794;7.054;2023-09-19T05:33:43;100561.84;;;14.20;73.17
72925;BME280;61070;50.794;7.054;2023-09-19T05:34:44;100558.44;;;14.18;73.48
72925;BME280;61070;50.794;7.054;2023-09-19T05:35:44;100553.72;;;14.23;73.18